sensor_id;sensor_type;location;lat;lon;timestamp;P1;durP1;ratioP1;P2;durP2;ratioP2
21786;SDS011;11055;50.870;4.316;2023-05-20T00:00:47;7.40;;;4.25;;
21786;SDS011;11055;50.870;4.316;2023-05-20T00:03:13;8.40;;;3.75;;
21786;SDS011;11055;50.870;4.316;2023-05-20T00:05:43;5.77;;;3.97;;
21786;SDS011;11055;50.870;4.316;2023-05-20T00:08:09;9.20;;;4.22;;
21786;SDS011;11055;50.870;4.316;2023-05-20T00:10:35;5.55;;;3.67;;
21786;SDS011;11055;50.870;4.316;2023-05-20T00:13:01;6.30;;;3.90;;
21786;SDS011;11055;50.870;4.316;2023-05-20T00:15:27;6.10;;;3.53;;
21786;SDS011;11055;50.870;4.316;2023-05-20T00:17:53;5.88;;;3.72;;
21786;SDS011;11055;50.870;4.316;2023-05-20T00:20:19;4.75;;;3.60;;
21786;SDS011;11055;50.870;4.316;2023-05-20T00:22:45;6.03;;;3.50;;
21786;SDS011;11055;50.870;4.316;2023-05-20T00:25:11;6.88;;;3.78;;
21786;SDS011;11055;50.870;4.316;2023-05-20T00:27:38;6.25;;;3.45;;
21786;SDS011;11055;50.870;4.316;2023-05-20T00:30:06;8.05;;;3.80;;
21786;SDS011;11055;50.870;4.316;2023-05-20T00:32:32;5.38;;;3.45;;
21786;SDS011;11055;50.870;4.316;2023-05-20T00:34:58;8.55;;;3.60;;
21786;SDS011;11055;50.870;4.316;2023-05-20T00:37:25;4.78;;;3.08;;
21786;SDS011;11055;50.870;4.316;2023-05-20T00:39:51;5.72;;;3.53;;
21786;SDS011;11055;50.870;4.316;2023-05-20T00:42:20;5.38;;;3.75;;
21786;SDS011;11055;50.870;4.316;2023-05-20T00:44:46;5.97;;;3.80;;
21786;SDS011;11055;50.870;4.316;2023-05-20T00:47:15;8.85;;;4.05;;
21786;SDS011;11055;50.870;4.316;2023-05-20T00:49:45;9.60;;;4.47;;
21786;SDS011;11055;50.870;4.316;2023-05-20T00:52:12;7.90;;;4.55;;
21786;SDS011;11055;50.870;4.316;2023-05-20T00:54:41;7.70;;;4.38;;
21786;SDS011;11055;50.870;4.316;2023-05-20T00:57:07;4.93;;;3.63;;
21786;SDS011;11055;50.870;4.316;2023-05-20T00:59:35;8.77;;;4.13;;
21786;SDS011;11055;50.870;4.316;2023-05-20T01:02:01;8.73;;;4.60;;
21786;SDS011;11055;50.870;4.316;2023-05-20T01:04:31;12.38;;;9.75;;
21786;SDS011;11055;50.870;4.316;2023-05-20T01:06:57;10.27;;;4.95;;
21786;SDS011;11055;50.870;4.316;2023-05-20T01:09:25;8.80;;;4.75;;
21786;SDS011;11055;50.870;4.316;2023-05-20T01:11:55;6.85;;;4.13;;
21786;SDS011;11055;50.870;4.316;2023-05-20T01:14:35;10.30;;;4.43;;
21786;SDS011;11055;50.870;4.316;2023-05-20T01:17:05;7.32;;;3.97;;
21786;SDS011;11055;50.870;4.316;2023-05-20T01:19:39;7.07;;;4.55;;
21786;SDS011;11055;50.870;4.316;2023-05-20T01:22:09;13.80;;;4.35;;
21786;SDS011;11055;50.870;4.316;2023-05-20T01:24:46;11.68;;;4.25;;
21786;SDS011;11055;50.870;4.316;2023-05-20T01:27:13;7.75;;;3.72;;
21786;SDS011;11055;50.870;4.316;2023-05-20T01:29:39;8.75;;;4.15;;
21786;SDS011;11055;50.870;4.316;2023-05-20T01:32:08;11.07;;;4.55;;
21786;SDS011;11055;50.870;4.316;2023-05-20T01:34:37;8.02;;;4.45;;
21786;SDS011;11055;50.870;4.316;2023-05-20T01:37:05;7.22;;;4.00;;
21786;SDS011;11055;50.870;4.316;2023-05-20T01:39:32;12.90;;;4.35;;
21786;SDS011;11055;50.870;4.316;2023-05-20T01:42:00;8.27;;;4.40;;
21786;SDS011;11055;50.870;4.316;2023-05-20T01:44:27;7.43;;;4.60;;
21786;SDS011;11055;50.870;4.316;2023-05-20T01:46:53;12.93;;;4.65;;
21786;SDS011;11055;50.870;4.316;2023-05-20T01:49:19;7.43;;;4.75;;
21786;SDS011;11055;50.870;4.316;2023-05-20T01:51:45;5.85;;;4.43;;
21786;SDS011;11055;50.870;4.316;2023-05-20T01:54:10;8.50;;;4.82;;
21786;SDS011;11055;50.870;4.316;2023-05-20T01:56:36;7.57;;;4.88;;
21786;SDS011;11055;50.870;4.316;2023-05-20T01:59:02;7.45;;;4.97;;
21786;SDS011;11055;50.870;4.316;2023-05-20T02:01:27;6.45;;;4.05;;
21786;SDS011;11055;50.870;4.316;2023-05-20T02:03:53;8.63;;;3.92;;
21786;SDS011;11055;50.870;4.316;2023-05-20T02:06:19;7.70;;;3.97;;
21786;SDS011;11055;50.870;4.316;2023-05-20T02:08:44;8.15;;;3.90;;
21786;SDS011;11055;50.870;4.316;2023-05-20T02:11:10;5.82;;;4.00;;
21786;SDS011;11055;50.870;4.316;2023-05-20T02:13:35;9.27;;;4.15;;
21786;SDS011;11055;50.870;4.316;2023-05-20T02:16:02;6.75;;;4.53;;
21786;SDS011;11055;50.870;4.316;2023-05-20T02:18:28;8.00;;;3.80;;
21786;SDS011;11055;50.870;4.316;2023-05-20T02:20:54;6.93;;;4.20;;
21786;SDS011;11055;50.870;4.316;2023-05-20T02:23:19;8.27;;;3.65;;
21786;SDS011;11055;50.870;4.316;2023-05-20T02:25:45;7.80;;;3.92;;
21786;SDS011;11055;50.870;4.316;2023-05-20T02:28:11;8.65;;;3.85;;
21786;SDS011;11055;50.870;4.316;2023-05-20T02:30:37;6.38;;;4.05;;
21786;SDS011;11055;50.870;4.316;2023-05-20T02:33:02;7.72;;;3.92;;
21786;SDS011;11055;50.870;4.316;2023-05-20T02:35:28;7.18;;;3.70;;
21786;SDS011;11055;50.870;4.316;2023-05-20T02:37:54;6.72;;;3.60;;
21786;SDS011;11055;50.870;4.316;2023-05-20T02:40:19;6.50;;;3.90;;
21786;SDS011;11055;50.870;4.316;2023-05-20T02:42:45;6.68;;;3.83;;
21786;SDS011;11055;50.870;4.316;2023-05-20T02:45:11;8.98;;;3.70;;
21786;SDS011;11055;50.870;4.316;2023-05-20T02:47:37;9.10;;;3.95;;
21786;SDS011;11055;50.870;4.316;2023-05-20T02:50:02;9.38;;;3.60;;
21786;SDS011;11055;50.870;4.316;2023-05-20T02:52:28;8.00;;;3.70;;
21786;SDS011;11055;50.870;4.316;2023-05-20T02:54:54;6.88;;;3.95;;
21786;SDS011;11055;50.870;4.316;2023-05-20T02:57:20;7.20;;;3.60;;
21786;SDS011;11055;50.870;4.316;2023-05-20T02:59:46;9.18;;;3.95;;
21786;SDS011;11055;50.870;4.316;2023-05-20T03:02:11;6.82;;;3.83;;
21786;SDS011;11055;50.870;4.316;2023-05-20T03:04:38;7.03;;;4.40;;
21786;SDS011;11055;50.870;4.316;2023-05-20T03:07:07;8.93;;;3.58;;
21786;SDS011;11055;50.870;4.316;2023-05-20T03:09:34;8.00;;;3.72;;
21786;SDS011;11055;50.870;4.316;2023-05-20T03:12:01;5.80;;;3.92;;
21786;SDS011;11055;50.870;4.316;2023-05-20T03:14:27;7.20;;;3.70;;
21786;SDS011;11055;50.870;4.316;2023-05-20T03:16:52;8.68;;;4.07;;
21786;SDS011;11055;50.870;4.316;2023-05-20T03:19:21;7.88;;;3.60;;
21786;SDS011;11055;50.870;4.316;2023-05-20T03:21:47;7.25;;;3.63;;
21786;SDS011;11055;50.870;4.316;2023-05-20T03:24:14;8.25;;;3.85;;
21786;SDS011;11055;50.870;4.316;2023-05-20T03:26:40;8.18;;;4.15;;
21786;SDS011;11055;50.870;4.316;2023-05-20T03:29:10;6.43;;;3.97;;
21786;SDS011;11055;50.870;4.316;2023-05-20T03:31:36;7.63;;;3.90;;
21786;SDS011;11055;50.870;4.316;2023-05-20T03:34:02;6.47;;;3.92;;
21786;SDS011;11055;50.870;4.316;2023-05-20T03:36:27;6.80;;;3.65;;
21786;SDS011;11055;50.870;4.316;2023-05-20T03:38:53;8.70;;;4.10;;
21786;SDS011;11055;50.870;4.316;2023-05-20T03:41:18;6.05;;;3.75;;
21786;SDS011;11055;50.870;4.316;2023-05-20T03:43:45;7.88;;;3.83;;
21786;SDS011;11055;50.870;4.316;2023-05-20T03:46:10;8.32;;;4.00;;
21786;SDS011;11055;50.870;4.316;2023-05-20T03:48:36;8.88;;;4.18;;
21786;SDS011;11055;50.870;4.316;2023-05-20T03:51:01;6.82;;;3.97;;
21786;SDS011;11055;50.870;4.316;2023-05-20T03:53:27;8.20;;;4.20;;
21786;SDS011;11055;50.870;4.316;2023-05-20T03:55:53;7.55;;;3.75;;
21786;SDS011;11055;50.870;4.316;2023-05-20T03:58:18;10.43;;;4.53;;
21786;SDS011;11055;50.870;4.316;2023-05-20T04:00:45;8.23;;;3.65;;
21786;SDS011;11055;50.870;4.316;2023-05-20T04:03:11;9.63;;;4.20;;
21786;SDS011;11055;50.870;4.316;2023-05-20T04:05:37;7.05;;;3.95;;
21786;SDS011;11055;50.870;4.316;2023-05-20T04:08:03;7.60;;;4.40;;
21786;SDS011;11055;50.870;4.316;2023-05-20T04:10:29;7.70;;;4.13;;
21786;SDS011;11055;50.870;4.316;2023-05-20T04:12:57;11.13;;;4.07;;
21786;SDS011;11055;50.870;4.316;2023-05-20T04:15:23;6.45;;;4.13;;
21786;SDS011;11055;50.870;4.316;2023-05-20T04:17:49;9.57;;;4.07;;
21786;SDS011;11055;50.870;4.316;2023-05-20T04:20:16;8.43;;;3.80;;
21786;SDS011;11055;50.870;4.316;2023-05-20T04:22:45;10.73;;;4.53;;
21786;SDS011;11055;50.870;4.316;2023-05-20T04:25:12;8.18;;;4.25;;
21786;SDS011;11055;50.870;4.316;2023-05-20T04:27:38;9.43;;;3.88;;
21786;SDS011;11055;50.870;4.316;2023-05-20T04:30:04;5.93;;;3.95;;
21786;SDS011;11055;50.870;4.316;2023-05-20T04:32:31;11.52;;;4.68;;
21786;SDS011;11055;50.870;4.316;2023-05-20T04:35:00;6.57;;;4.45;;
21786;SDS011;11055;50.870;4.316;2023-05-20T04:37:32;6.47;;;3.97;;
21786;SDS011;11055;50.870;4.316;2023-05-20T04:39:58;9.63;;;4.25;;
21786;SDS011;11055;50.870;4.316;2023-05-20T04:42:28;7.20;;;3.97;;
21786;SDS011;11055;50.870;4.316;2023-05-20T04:44:54;9.98;;;4.75;;
21786;SDS011;11055;50.870;4.316;2023-05-20T04:47:19;8.90;;;4.20;;
21786;SDS011;11055;50.870;4.316;2023-05-20T04:49:45;8.95;;;5.10;;
21786;SDS011;11055;50.870;4.316;2023-05-20T04:52:12;8.52;;;4.75;;
21786;SDS011;11055;50.870;4.316;2023-05-20T04:54:37;7.47;;;4.30;;
21786;SDS011;11055;50.870;4.316;2023-05-20T04:57:04;11.18;;;4.85;;
21786;SDS011;11055;50.870;4.316;2023-05-20T04:59:30;7.90;;;4.38;;
21786;SDS011;11055;50.870;4.316;2023-05-20T05:01:56;9.20;;;5.40;;
21786;SDS011;11055;50.870;4.316;2023-05-20T05:04:21;7.00;;;4.00;;
21786;SDS011;11055;50.870;4.316;2023-05-20T05:06:47;8.63;;;4.55;;
21786;SDS011;11055;50.870;4.316;2023-05-20T05:09:13;10.10;;;5.15;;
21786;SDS011;11055;50.870;4.316;2023-05-20T05:11:39;5.95;;;4.63;;
21786;SDS011;11055;50.870;4.316;2023-05-20T05:14:05;14.32;;;5.32;;
21786;SDS011;11055;50.870;4.316;2023-05-20T05:16:31;18.08;;;5.40;;
21786;SDS011;11055;50.870;4.316;2023-05-20T05:18:56;11.63;;;4.68;;
21786;SDS011;11055;50.870;4.316;2023-05-20T05:21:22;11.20;;;5.10;;
21786;SDS011;11055;50.870;4.316;2023-05-20T05:23:47;9.32;;;4.82;;
21786;SDS011;11055;50.870;4.316;2023-05-20T05:26:13;8.65;;;5.07;;
21786;SDS011;11055;50.870;4.316;2023-05-20T05:28:42;9.77;;;4.78;;
21786;SDS011;11055;50.870;4.316;2023-05-20T05:31:08;10.93;;;4.47;;
21786;SDS011;11055;50.870;4.316;2023-05-20T05:33:33;7.38;;;4.53;;
21786;SDS011;11055;50.870;4.316;2023-05-20T05:35:59;10.65;;;4.72;;
21786;SDS011;11055;50.870;4.316;2023-05-20T05:38:26;8.30;;;4.82;;
21786;SDS011;11055;50.870;4.316;2023-05-20T05:40:52;10.65;;;4.95;;
21786;SDS011;11055;50.870;4.316;2023-05-20T05:43:17;9.73;;;4.88;;
21786;SDS011;11055;50.870;4.316;2023-05-20T05:45:43;7.70;;;4.70;;
21786;SDS011;11055;50.870;4.316;2023-05-20T05:48:09;8.45;;;4.88;;
21786;SDS011;11055;50.870;4.316;2023-05-20T05:50:35;12.68;;;5.28;;
21786;SDS011;11055;50.870;4.316;2023-05-20T05:53:00;8.20;;;4.60;;
21786;SDS011;11055;50.870;4.316;2023-05-20T05:55:26;10.35;;;5.18;;
21786;SDS011;11055;50.870;4.316;2023-05-20T05:57:52;9.32;;;4.78;;
21786;SDS011;11055;50.870;4.316;2023-05-20T06:00:18;8.38;;;4.93;;
21786;SDS011;11055;50.870;4.316;2023-05-20T06:02:45;7.88;;;5.07;;
21786;SDS011;11055;50.870;4.316;2023-05-20T06:05:11;5.85;;;4.70;;
21786;SDS011;11055;50.870;4.316;2023-05-20T06:07:37;8.48;;;4.65;;
21786;SDS011;11055;50.870;4.316;2023-05-20T06:10:02;9.70;;;4.65;;
21786;SDS011;11055;50.870;4.316;2023-05-20T06:12:28;6.63;;;4.70;;
21786;SDS011;11055;50.870;4.316;2023-05-20T06:14:54;11.32;;;5.00;;
21786;SDS011;11055;50.870;4.316;2023-05-20T06:17:20;7.80;;;4.88;;
21786;SDS011;11055;50.870;4.316;2023-05-20T06:19:45;10.45;;;4.85;;
21786;SDS011;11055;50.870;4.316;2023-05-20T06:22:11;8.55;;;5.20;;
21786;SDS011;11055;50.870;4.316;2023-05-20T06:24:37;10.13;;;4.85;;
21786;SDS011;11055;50.870;4.316;2023-05-20T06:27:05;7.60;;;4.88;;
21786;SDS011;11055;50.870;4.316;2023-05-20T06:29:31;8.02;;;5.18;;
21786;SDS011;11055;50.870;4.316;2023-05-20T06:31:56;10.98;;;5.20;;
21786;SDS011;11055;50.870;4.316;2023-05-20T06:34:23;9.60;;;4.85;;
21786;SDS011;11055;50.870;4.316;2023-05-20T06:36:49;7.22;;;5.03;;
21786;SDS011;11055;50.870;4.316;2023-05-20T06:39:14;9.07;;;5.03;;
21786;SDS011;11055;50.870;4.316;2023-05-20T06:41:40;7.82;;;4.60;;
21786;SDS011;11055;50.870;4.316;2023-05-20T06:44:06;7.90;;;4.60;;
21786;SDS011;11055;50.870;4.316;2023-05-20T06:46:32;6.03;;;4.30;;
21786;SDS011;11055;50.870;4.316;2023-05-20T06:48:58;8.07;;;4.50;;
21786;SDS011;11055;50.870;4.316;2023-05-20T06:51:24;7.47;;;4.30;;
21786;SDS011;11055;50.870;4.316;2023-05-20T06:53:50;5.63;;;4.40;;
21786;SDS011;11055;50.870;4.316;2023-05-20T06:56:16;6.15;;;4.38;;
21786;SDS011;11055;50.870;4.316;2023-05-20T06:58:41;10.63;;;4.40;;
21786;SDS011;11055;50.870;4.316;2023-05-20T07:01:07;10.05;;;4.82;;
21786;SDS011;11055;50.870;4.316;2023-05-20T07:03:32;11.35;;;4.95;;
21786;SDS011;11055;50.870;4.316;2023-05-20T07:05:58;6.85;;;4.95;;
21786;SDS011;11055;50.870;4.316;2023-05-20T07:08:24;11.23;;;5.05;;
21786;SDS011;11055;50.870;4.316;2023-05-20T07:10:49;6.45;;;4.47;;
21786;SDS011;11055;50.870;4.316;2023-05-20T07:13:15;7.93;;;4.53;;
21786;SDS011;11055;50.870;4.316;2023-05-20T07:15:41;6.07;;;4.30;;
21786;SDS011;11055;50.870;4.316;2023-05-20T07:18:11;8.65;;;4.28;;
21786;SDS011;11055;50.870;4.316;2023-05-20T07:20:37;11.30;;;4.45;;
21786;SDS011;11055;50.870;4.316;2023-05-20T07:23:02;5.57;;;4.07;;
21786;SDS011;11055;50.870;4.316;2023-05-20T07:25:28;10.10;;;5.35;;
21786;SDS011;11055;50.870;4.316;2023-05-20T07:27:54;5.50;;;4.05;;
21786;SDS011;11055;50.870;4.316;2023-05-20T07:30:20;5.82;;;4.05;;
21786;SDS011;11055;50.870;4.316;2023-05-20T07:32:45;5.97;;;4.43;;
21786;SDS011;11055;50.870;4.316;2023-05-20T07:35:12;4.95;;;4.15;;
21786;SDS011;11055;50.870;4.316;2023-05-20T07:37:38;4.80;;;3.80;;
21786;SDS011;11055;50.870;4.316;2023-05-20T07:40:03;6.93;;;3.90;;
21786;SDS011;11055;50.870;4.316;2023-05-20T07:42:31;6.15;;;4.05;;
21786;SDS011;11055;50.870;4.316;2023-05-20T07:44:56;4.13;;;3.70;;
21786;SDS011;11055;50.870;4.316;2023-05-20T07:47:22;6.75;;;4.30;;
21786;SDS011;11055;50.870;4.316;2023-05-20T07:49:48;6.10;;;3.85;;
21786;SDS011;11055;50.870;4.316;2023-05-20T07:52:13;7.90;;;4.35;;
21786;SDS011;11055;50.870;4.316;2023-05-20T07:54:40;8.38;;;3.97;;
21786;SDS011;11055;50.870;4.316;2023-05-20T07:57:05;5.18;;;3.35;;
21786;SDS011;11055;50.870;4.316;2023-05-20T07:59:31;5.40;;;4.03;;
21786;SDS011;11055;50.870;4.316;2023-05-20T08:01:57;6.13;;;4.10;;
21786;SDS011;11055;50.870;4.316;2023-05-20T08:04:23;4.78;;;4.05;;
21786;SDS011;11055;50.870;4.316;2023-05-20T08:06:49;7.25;;;3.72;;
21786;SDS011;11055;50.870;4.316;2023-05-20T08:09:17;5.93;;;3.50;;
21786;SDS011;11055;50.870;4.316;2023-05-20T08:11:43;5.35;;;3.50;;
21786;SDS011;11055;50.870;4.316;2023-05-20T08:14:09;4.05;;;3.47;;
21786;SDS011;11055;50.870;4.316;2023-05-20T08:16:35;5.07;;;3.33;;
21786;SDS011;11055;50.870;4.316;2023-05-20T08:19:01;5.07;;;3.83;;
21786;SDS011;11055;50.870;4.316;2023-05-20T08:21:27;8.75;;;4.10;;
21786;SDS011;11055;50.870;4.316;2023-05-20T08:23:53;10.32;;;4.72;;
21786;SDS011;11055;50.870;4.316;2023-05-20T08:26:19;5.47;;;3.47;;
21786;SDS011;11055;50.870;4.316;2023-05-20T08:28:45;8.02;;;4.10;;
21786;SDS011;11055;50.870;4.316;2023-05-20T08:31:12;6.88;;;3.65;;
21786;SDS011;11055;50.870;4.316;2023-05-20T08:33:38;3.20;;;2.72;;
21786;SDS011;11055;50.870;4.316;2023-05-20T08:36:05;6.53;;;2.97;;
21786;SDS011;11055;50.870;4.316;2023-05-20T08:38:32;4.95;;;3.03;;
21786;SDS011;11055;50.870;4.316;2023-05-20T08:40:58;4.43;;;3.00;;
21786;SDS011;11055;50.870;4.316;2023-05-20T08:43:24;5.18;;;2.72;;
21786;SDS011;11055;50.870;4.316;2023-05-20T08:45:50;6.95;;;2.85;;
21786;SDS011;11055;50.870;4.316;2023-05-20T08:48:17;6.72;;;3.30;;
21786;SDS011;11055;50.870;4.316;2023-05-20T08:50:51;4.35;;;2.80;;
21786;SDS011;11055;50.870;4.316;2023-05-20T08:53:21;8.68;;;3.17;;
21786;SDS011;11055;50.870;4.316;2023-05-20T08:55:53;4.55;;;2.80;;
21786;SDS011;11055;50.870;4.316;2023-05-20T08:58:22;4.65;;;2.63;;
21786;SDS011;11055;50.870;4.316;2023-05-20T09:00:49;8.30;;;2.90;;
21786;SDS011;11055;50.870;4.316;2023-05-20T09:03:17;5.05;;;2.83;;
21786;SDS011;11055;50.870;4.316;2023-05-20T09:05:44;4.30;;;2.88;;
21786;SDS011;11055;50.870;4.316;2023-05-20T09:08:10;5.45;;;3.70;;
21786;SDS011;11055;50.870;4.316;2023-05-20T09:10:37;6.53;;;3.22;;
21786;SDS011;11055;50.870;4.316;2023-05-20T09:13:04;7.45;;;3.05;;
21786;SDS011;11055;50.870;4.316;2023-05-20T09:15:31;4.97;;;3.20;;
21786;SDS011;11055;50.870;4.316;2023-05-20T09:18:01;3.83;;;3.08;;
21786;SDS011;11055;50.870;4.316;2023-05-20T09:20:27;7.10;;;3.10;;
21786;SDS011;11055;50.870;4.316;2023-05-20T09:22:57;4.10;;;2.97;;
21786;SDS011;11055;50.870;4.316;2023-05-20T09:25:24;6.28;;;3.17;;
21786;SDS011;11055;50.870;4.316;2023-05-20T09:27:50;3.17;;;2.88;;
21786;SDS011;11055;50.870;4.316;2023-05-20T09:30:19;4.53;;;2.92;;
21786;SDS011;11055;50.870;4.316;2023-05-20T09:32:55;3.97;;;2.70;;
21786;SDS011;11055;50.870;4.316;2023-05-20T09:35:22;5.63;;;3.17;;
21786;SDS011;11055;50.870;4.316;2023-05-20T09:37:55;5.85;;;3.03;;
21786;SDS011;11055;50.870;4.316;2023-05-20T09:40:26;8.30;;;3.00;;
21786;SDS011;11055;50.870;4.316;2023-05-20T09:42:54;4.50;;;2.80;;
21786;SDS011;11055;50.870;4.316;2023-05-20T09:45:23;5.43;;;2.80;;
21786;SDS011;11055;50.870;4.316;2023-05-20T09:47:49;6.40;;;2.92;;
21786;SDS011;11055;50.870;4.316;2023-05-20T09:50:16;4.57;;;2.90;;
21786;SDS011;11055;50.870;4.316;2023-05-20T09:52:47;12.25;;;3.45;;
21786;SDS011;11055;50.870;4.316;2023-05-20T09:55:15;7.03;;;3.10;;
21786;SDS011;11055;50.870;4.316;2023-05-20T09:57:43;6.28;;;3.03;;
21786;SDS011;11055;50.870;4.316;2023-05-20T10:00:09;3.83;;;2.95;;
21786;SDS011;11055;50.870;4.316;2023-05-20T10:02:37;4.53;;;2.70;;
21786;SDS011;11055;50.870;4.316;2023-05-20T10:05:09;7.40;;;2.60;;
21786;SDS011;11055;50.870;4.316;2023-05-20T10:10:31;4.85;;;2.85;;
21786;SDS011;11055;50.870;4.316;2023-05-20T10:21:20;4.32;;;2.75;;
21786;SDS011;11055;50.870;4.316;2023-05-20T10:23:48;7.65;;;2.70;;
21786;SDS011;11055;50.870;4.316;2023-05-20T10:26:15;4.07;;;2.15;;
21786;SDS011;11055;50.870;4.316;2023-05-20T10:28:42;5.15;;;2.63;;
21786;SDS011;11055;50.870;4.316;2023-05-20T10:31:16;4.93;;;2.50;;
21786;SDS011;11055;50.870;4.316;2023-05-20T10:33:46;6.05;;;2.40;;
21786;SDS011;11055;50.870;4.316;2023-05-20T10:36:22;3.28;;;2.72;;
21786;SDS011;11055;50.870;4.316;2023-05-20T10:38:51;8.57;;;2.90;;
21786;SDS011;11055;50.870;4.316;2023-05-20T10:41:20;6.00;;;2.80;;
21786;SDS011;11055;50.870;4.316;2023-05-20T10:43:58;6.32;;;2.45;;
21786;SDS011;11055;50.870;4.316;2023-05-20T10:46:28;5.53;;;2.88;;
21786;SDS011;11055;50.870;4.316;2023-05-20T10:48:54;3.72;;;2.70;;
21786;SDS011;11055;50.870;4.316;2023-05-20T10:51:20;6.07;;;3.20;;
21786;SDS011;11055;50.870;4.316;2023-05-20T10:53:46;6.65;;;3.17;;
21786;SDS011;11055;50.870;4.316;2023-05-20T10:56:18;4.53;;;2.80;;
21786;SDS011;11055;50.870;4.316;2023-05-20T10:58:45;7.35;;;2.80;;
21786;SDS011;11055;50.870;4.316;2023-05-20T11:01:12;3.58;;;2.90;;
21786;SDS011;11055;50.870;4.316;2023-05-20T11:03:45;3.08;;;2.70;;
21786;SDS011;11055;50.870;4.316;2023-05-20T11:08:38;6.43;;;3.25;;
21786;SDS011;11055;50.870;4.316;2023-05-20T11:11:03;7.28;;;2.83;;
21786;SDS011;11055;50.870;4.316;2023-05-20T11:13:30;3.65;;;2.58;;
21786;SDS011;11055;50.870;4.316;2023-05-20T11:15:56;5.85;;;2.60;;
21786;SDS011;11055;50.870;4.316;2023-05-20T11:18:23;5.75;;;2.95;;
21786;SDS011;11055;50.870;4.316;2023-05-20T11:20:55;6.18;;;2.63;;
21786;SDS011;11055;50.870;4.316;2023-05-20T11:23:22;8.07;;;3.13;;
21786;SDS011;11055;50.870;4.316;2023-05-20T11:25:51;7.05;;;3.25;;
21786;SDS011;11055;50.870;4.316;2023-05-20T11:28:21;3.13;;;2.83;;
21786;SDS011;11055;50.870;4.316;2023-05-20T11:30:47;5.25;;;2.97;;
21786;SDS011;11055;50.870;4.316;2023-05-20T11:33:14;5.80;;;2.83;;
21786;SDS011;11055;50.870;4.316;2023-05-20T11:38:11;5.03;;;3.13;;
21786;SDS011;11055;50.870;4.316;2023-05-20T11:40:41;3.88;;;2.80;;
21786;SDS011;11055;50.870;4.316;2023-05-20T11:43:14;4.93;;;2.75;;
21786;SDS011;11055;50.870;4.316;2023-05-20T11:45:43;5.60;;;2.50;;
21786;SDS011;11055;50.870;4.316;2023-05-20T11:48:10;3.92;;;2.65;;
21786;SDS011;11055;50.870;4.316;2023-05-20T11:50:37;3.58;;;3.00;;
21786;SDS011;11055;50.870;4.316;2023-05-20T11:53:09;3.35;;;3.00;;
21786;SDS011;11055;50.870;4.316;2023-05-20T11:55:48;6.35;;;3.05;;
21786;SDS011;11055;50.870;4.316;2023-05-20T11:58:17;4.60;;;2.70;;
21786;SDS011;11055;50.870;4.316;2023-05-20T12:00:44;6.20;;;3.55;;
21786;SDS011;11055;50.870;4.316;2023-05-20T12:03:10;4.13;;;3.15;;
21786;SDS011;11055;50.870;4.316;2023-05-20T12:05:36;5.13;;;3.00;;
21786;SDS011;11055;50.870;4.316;2023-05-20T12:08:02;3.05;;;2.75;;
21786;SDS011;11055;50.870;4.316;2023-05-20T12:10:29;5.28;;;2.92;;
21786;SDS011;11055;50.870;4.316;2023-05-20T12:12:55;5.75;;;2.80;;
21786;SDS011;11055;50.870;4.316;2023-05-20T12:15:20;7.15;;;3.20;;
21786;SDS011;11055;50.870;4.316;2023-05-20T12:17:47;5.78;;;2.65;;
21786;SDS011;11055;50.870;4.316;2023-05-20T12:20:15;6.50;;;2.65;;
21786;SDS011;11055;50.870;4.316;2023-05-20T12:22:45;3.92;;;2.78;;
21786;SDS011;11055;50.870;4.316;2023-05-20T12:25:14;4.40;;;2.80;;
21786;SDS011;11055;50.870;4.316;2023-05-20T12:27:41;3.25;;;2.92;;
21786;SDS011;11055;50.870;4.316;2023-05-20T12:30:12;2.80;;;2.60;;
21786;SDS011;11055;50.870;4.316;2023-05-20T12:32:41;5.80;;;3.05;;
21786;SDS011;11055;50.870;4.316;2023-05-20T12:35:08;6.18;;;2.80;;
21786;SDS011;11055;50.870;4.316;2023-05-20T12:37:34;4.45;;;2.85;;
21786;SDS011;11055;50.870;4.316;2023-05-20T12:40:01;2.90;;;2.60;;
21786;SDS011;11055;50.870;4.316;2023-05-20T12:42:32;3.92;;;2.78;;
21786;SDS011;11055;50.870;4.316;2023-05-20T12:45:02;4.30;;;3.25;;
21786;SDS011;11055;50.870;4.316;2023-05-20T12:47:28;5.45;;;2.97;;
21786;SDS011;11055;50.870;4.316;2023-05-20T12:49:55;3.13;;;2.72;;
21786;SDS011;11055;50.870;4.316;2023-05-20T12:52:20;4.60;;;2.63;;
21786;SDS011;11055;50.870;4.316;2023-05-20T12:54:46;3.13;;;2.83;;
21786;SDS011;11055;50.870;4.316;2023-05-20T12:57:12;4.32;;;3.20;;
21786;SDS011;11055;50.870;4.316;2023-05-20T12:59:38;3.47;;;2.95;;
21786;SDS011;11055;50.870;4.316;2023-05-20T13:02:03;3.47;;;2.80;;
21786;SDS011;11055;50.870;4.316;2023-05-20T13:04:29;5.00;;;2.97;;
21786;SDS011;11055;50.870;4.316;2023-05-20T13:06:56;6.28;;;3.22;;
21786;SDS011;11055;50.870;4.316;2023-05-20T13:09:21;6.47;;;2.83;;
21786;SDS011;11055;50.870;4.316;2023-05-20T13:11:47;3.38;;;2.58;;
21786;SDS011;11055;50.870;4.316;2023-05-20T13:14:13;4.43;;;2.85;;
21786;SDS011;11055;50.870;4.316;2023-05-20T13:16:39;5.00;;;2.85;;
21786;SDS011;11055;50.870;4.316;2023-05-20T13:19:04;5.18;;;2.97;;
21786;SDS011;11055;50.870;4.316;2023-05-20T13:21:30;4.75;;;2.83;;
21786;SDS011;11055;50.870;4.316;2023-05-20T13:23:56;5.15;;;2.80;;
21786;SDS011;11055;50.870;4.316;2023-05-20T13:26:22;4.07;;;3.00;;
21786;SDS011;11055;50.870;4.316;2023-05-20T13:28:48;3.70;;;3.05;;
21786;SDS011;11055;50.870;4.316;2023-05-20T13:31:14;3.38;;;2.65;;
21786;SDS011;11055;50.870;4.316;2023-05-20T13:33:40;3.72;;;2.70;;
21786;SDS011;11055;50.870;4.316;2023-05-20T13:36:06;3.05;;;2.30;;
21786;SDS011;11055;50.870;4.316;2023-05-20T13:38:32;2.70;;;2.38;;
21786;SDS011;11055;50.870;4.316;2023-05-20T13:40:57;5.38;;;2.67;;
21786;SDS011;11055;50.870;4.316;2023-05-20T13:43:26;4.70;;;2.50;;
21786;SDS011;11055;50.870;4.316;2023-05-20T13:45:52;2.92;;;2.35;;
21786;SDS011;11055;50.870;4.316;2023-05-20T13:48:18;3.78;;;3.47;;
21786;SDS011;11055;50.870;4.316;2023-05-20T13:50:44;3.25;;;2.38;;
21786;SDS011;11055;50.870;4.316;2023-05-20T13:53:10;3.05;;;2.67;;
21786;SDS011;11055;50.870;4.316;2023-05-20T13:55:37;4.20;;;2.65;;
21786;SDS011;11055;50.870;4.316;2023-05-20T13:58:03;6.28;;;2.10;;
21786;SDS011;11055;50.870;4.316;2023-05-20T14:00:32;7.10;;;2.40;;
21786;SDS011;11055;50.870;4.316;2023-05-20T14:03:01;4.55;;;2.40;;
21786;SDS011;11055;50.870;4.316;2023-05-20T14:05:29;5.63;;;2.55;;
21786;SDS011;11055;50.870;4.316;2023-05-20T14:07:56;3.00;;;2.70;;
21786;SDS011;11055;50.870;4.316;2023-05-20T14:10:22;6.90;;;2.88;;
21786;SDS011;11055;50.870;4.316;2023-05-20T14:12:47;5.82;;;2.65;;
21786;SDS011;11055;50.870;4.316;2023-05-20T14:15:13;3.25;;;2.55;;
21786;SDS011;11055;50.870;4.316;2023-05-20T14:17:39;7.95;;;3.30;;
21786;SDS011;11055;50.870;4.316;2023-05-20T14:20:05;5.55;;;3.13;;
21786;SDS011;11055;50.870;4.316;2023-05-20T14:22:32;4.90;;;2.80;;
21786;SDS011;11055;50.870;4.316;2023-05-20T14:24:57;5.32;;;2.70;;
21786;SDS011;11055;50.870;4.316;2023-05-20T14:27:23;6.35;;;3.00;;
21786;SDS011;11055;50.870;4.316;2023-05-20T14:29:49;4.80;;;2.60;;
21786;SDS011;11055;50.870;4.316;2023-05-20T14:32:14;3.58;;;2.50;;
21786;SDS011;11055;50.870;4.316;2023-05-20T14:34:40;5.15;;;2.53;;
21786;SDS011;11055;50.870;4.316;2023-05-20T14:37:06;3.67;;;2.58;;
21786;SDS011;11055;50.870;4.316;2023-05-20T14:39:34;4.57;;;3.20;;
21786;SDS011;11055;50.870;4.316;2023-05-20T14:42:00;4.13;;;2.55;;
21786;SDS011;11055;50.870;4.316;2023-05-20T14:44:27;5.32;;;2.42;;
21786;SDS011;11055;50.870;4.316;2023-05-20T14:46:53;4.05;;;2.47;;
21786;SDS011;11055;50.870;4.316;2023-05-20T14:49:18;2.70;;;2.50;;
21786;SDS011;11055;50.870;4.316;2023-05-20T14:51:44;4.32;;;2.90;;
21786;SDS011;11055;50.870;4.316;2023-05-20T14:54:10;4.40;;;2.70;;
21786;SDS011;11055;50.870;4.316;2023-05-20T14:56:36;3.72;;;2.30;;
21786;SDS011;11055;50.870;4.316;2023-05-20T14:59:02;7.28;;;2.53;;